Time;durP1;ratioP1;P1;durP2;ratioP2;P2;SDS_P1;SDS_P2;PMS_P1;PMS_P2;Temp;Humidity;BMP_temperature;BMP_pressure;BME280_temperature;BME280_humidity;BME280_pressure;Samples;Min_cycle;Max_cycle;Signal;HPM_P1;HPM_P2
2023/02/19 00:01:33;;;;;;;41.03;21.02;;;;;;;;;;5049626;28;20221;-69
2023/02/19 00:04:02;;;;;;;40.22;22.13;;;;;;;;;;5053663;28;20923;-69
2023/02/19 00:06:29;;;;;;;41.63;22.25;;;;;;;;;;5050157;28;20563;-70
2023/02/19 00:08:55;;;;;;;52.45;23.17;;;;;;;;;;5053049;28;20232;-70
2023/02/19 00:11:24;;;;;;;40.80;22.30;;;;;;;;;;5049648;28;20320;-70
2023/02/19 00:13:53;;;;;;;43.28;21.95;;;;;;;;;;5055166;28;20264;-70
2023/02/19 00:16:22;;;;;;;47.15;22.48;;;;;;;;;;5049885;28;20328;-70
2023/02/19 00:18:48;;;;;;;45.97;22.60;;;;;;;;;;5052639;28;20198;-70
2023/02/19 00:21:14;;;;;;;42.03;23.70;;;;;;;;;;5050174;28;20598;-70
2023/02/19 00:23:40;;;;;;;42.72;22.55;;;;;;;;;;5049296;28;20197;-70
2023/02/19 00:26:08;;;;;;;42.78;22.77;;;;;;;;;;5054494;28;20197;-70
2023/02/19 00:28:34;;;;;;;44.67;22.73;;;;;;;;;;5049706;28;20418;-69
2023/02/19 00:31:07;;;;;;;38.92;22.75;;;;;;;;;;5052599;28;20242;-69
2023/02/19 00:33:33;;;;;;;44.72;23.42;;;;;;;;;;5062943;28;20184;-69
2023/02/19 00:36:03;;;;;;;47.35;22.95;;;;;;;;;;5054460;28;20193;-70
2023/02/19 00:38:29;;;;;;;44.22;22.30;;;;;;;;;;5062127;28;20207;-69
2023/02/19 00:40:55;;;;;;;43.33;21.75;;;;;;;;;;5052390;28;20261;-68
2023/02/19 00:43:20;;;;;;;45.08;23.60;;;;;;;;;;5057774;28;20184;-68
2023/02/19 00:45:45;;;;;;;52.35;23.65;;;;;;;;;;5051778;28;20243;-69
2023/02/19 00:48:11;;;;;;;49.47;23.88;;;;;;;;;;5051638;28;20260;-69
2023/02/19 00:50:36;;;;;;;50.33;25.38;;;;;;;;;;5057758;28;20256;-68
2023/02/19 00:53:02;;;;;;;53.88;25.60;;;;;;;;;;5062340;28;20208;-68
2023/02/19 00:55:27;;;;;;;58.38;26.25;;;;;;;;;;5059999;28;20192;-68
2023/02/19 00:57:52;;;;;;;57.53;26.45;;;;;;;;;;5057037;28;20209;-68
2023/02/19 01:00:18;;;;;;;60.83;27.20;;;;;;;;;;5060405;28;20354;-68
2023/02/19 01:02:43;;;;;;;60.15;24.85;;;;;;;;;;5063141;28;20184;-68
2023/02/19 01:05:08;;;;;;;54.33;26.00;;;;;;;;;;5053650;28;20538;-68
2023/02/19 01:07:35;;;;;;;50.45;25.88;;;;;;;;;;5057619;28;20192;-67
2023/02/19 01:10:01;;;;;;;54.10;25.70;;;;;;;;;;5056217;28;20216;-67
2023/02/19 01:12:27;;;;;;;55.72;26.17;;;;;;;;;;5057398;28;20548;-67
2023/02/19 01:14:53;;;;;;;55.60;25.85;;;;;;;;;;5061066;28;20242;-67
2023/02/19 01:17:19;;;;;;;62.05;25.90;;;;;;;;;;5062605;28;20191;-67
2023/02/19 01:19:44;;;;;;;56.72;26.33;;;;;;;;;;5053465;28;20645;-68
2023/02/19 01:22:10;;;;;;;57.08;24.30;;;;;;;;;;5053660;28;20315;-68
2023/02/19 01:24:35;;;;;;;58.97;27.63;;;;;;;;;;5047600;28;20672;-68
2023/02/19 01:27:00;;;;;;;64.82;26.77;;;;;;;;;;5053972;28;20229;-68
2023/02/19 01:29:26;;;;;;;50.65;25.42;;;;;;;;;;5058321;28;20232;-68
2023/02/19 01:31:51;;;;;;;61.65;24.48;;;;;;;;;;5058350;28;20204;-68
2023/02/19 01:34:16;;;;;;;47.10;24.38;;;;;;;;;;5060212;28;20243;-68
2023/02/19 01:36:42;;;;;;;56.28;24.27;;;;;;;;;;5047613;28;20204;-68
2023/02/19 01:39:07;;;;;;;54.95;24.40;;;;;;;;;;5065387;28;20660;-68
2023/02/19 01:41:38;;;;;;;49.30;22.15;;;;;;;;;;5059268;28;20233;-68
2023/02/19 01:44:10;;;;;;;50.97;22.50;;;;;;;;;;5067634;28;20196;-67
2023/02/19 01:46:41;;;;;;;53.05;23.92;;;;;;;;;;5057353;28;20231;-69
2023/02/19 01:49:17;;;;;;;58.72;23.90;;;;;;;;;;5056970;28;20202;-68
2023/02/19 01:51:58;;;;;;;58.05;24.00;;;;;;;;;;5054942;28;20192;-68
2023/02/19 01:54:28;;;;;;;49.45;24.08;;;;;;;;;;5051713;28;20219;-69
2023/02/19 01:56:54;;;;;;;45.08;23.08;;;;;;;;;;5061769;28;20193;-69
2023/02/19 01:59:20;;;;;;;51.85;24.38;;;;;;;;;;5059286;28;20234;-69
2023/02/19 02:01:45;;;;;;;47.20;22.90;;;;;;;;;;5055807;28;20217;-70
2023/02/19 02:04:12;;;;;;;49.72;21.98;;;;;;;;;;5057386;28;20223;-68
2023/02/19 02:06:47;;;;;;;47.22;21.77;;;;;;;;;;5062547;28;20288;-69
2023/02/19 02:11:56;;;;;;;44.78;21.20;;;;;;;;;;5048939;28;20193;-71
2023/02/19 02:14:26;;;;;;;43.80;19.73;;;;;;;;;;5053652;28;20188;-71
2023/02/19 02:16:55;;;;;;;46.38;19.92;;;;;;;;;;5059917;28;20186;-70
2023/02/19 02:19:45;;;;;;;36.95;19.63;;;;;;;;;;5049189;28;20209;-70
2023/02/19 02:22:30;;;;;;;39.63;19.10;;;;;;;;;;5062348;28;20189;-70
2023/02/19 02:25:25;;;;;;;41.92;19.15;;;;;;;;;;5057428;28;20201;-69
2023/02/19 02:28:23;;;;;;;33.50;18.58;;;;;;;;;;5059140;28;20590;-69
2023/02/19 02:31:13;;;;;;;32.47;17.98;;;;;;;;;;5062215;28;20521;-69
2023/02/19 02:34:00;;;;;;;38.17;18.88;;;;;;;;;;5051323;28;20621;-70
2023/02/19 02:36:33;;;;;;;37.97;17.83;;;;;;;;;;5054449;28;20200;-69
2023/02/19 02:39:02;;;;;;;36.90;17.65;;;;;;;;;;5059240;28;20319;-69
2023/02/19 02:41:27;;;;;;;33.67;18.63;;;;;;;;;;5066331;28;20276;-67
2023/02/19 02:43:53;;;;;;;33.88;16.80;;;;;;;;;;5052301;28;20272;-68
2023/02/19 02:46:24;;;;;;;34.72;17.05;;;;;;;;;;5054204;28;20195;-68
2023/02/19 02:48:55;;;;;;;37.25;18.17;;;;;;;;;;5053258;28;20596;-68
2023/02/19 02:51:39;;;;;;;37.75;16.63;;;;;;;;;;5052998;28;20198;-67
2023/02/19 02:57:00;;;;;;;30.45;16.23;;;;;;;;;;5052170;28;20264;-68
2023/02/19 02:59:29;;;;;;;24.77;14.45;;;;;;;;;;5062087;28;20203;-68
2023/02/19 03:02:11;;;;;;;30.48;15.18;;;;;;;;;;5062904;28;20219;-67
2023/02/19 03:07:58;;;;;;;26.25;14.68;;;;;;;;;;5059470;28;20667;-67
2023/02/19 03:10:32;;;;;;;29.48;14.80;;;;;;;;;;5056989;28;20447;-68
2023/02/19 03:21:22;;;;;;;25.88;13.05;;;;;;;;;;5058986;28;20192;-67
2023/02/19 03:26:34;;;;;;;29.52;13.63;;;;;;;;;;5064611;28;20322;-67
2023/02/19 03:31:47;;;;;;;22.30;11.98;;;;;;;;;;5056654;28;20249;-68
2023/02/19 03:34:20;;;;;;;24.38;12.05;;;;;;;;;;5049697;28;20185;-67
2023/02/19 03:36:53;;;;;;;22.27;11.82;;;;;;;;;;5051897;28;20197;-68
2023/02/19 03:39:20;;;;;;;24.08;11.90;;;;;;;;;;5057186;28;20196;-68
2023/02/19 03:42:01;;;;;;;20.08;11.98;;;;;;;;;;5057283;28;20196;-68
2023/02/19 03:44:36;;;;;;;28.83;12.80;;;;;;;;;;5050680;28;20196;-67
2023/02/19 03:47:20;;;;;;;23.13;11.90;;;;;;;;;;5063456;28;20674;-67
2023/02/19 03:50:15;;;;;;;23.42;10.93;;;;;;;;;;5053326;28;20700;-68
2023/02/19 03:53:01;;;;;;;21.75;10.77;;;;;;;;;;5058029;28;20196;-67
2023/02/19 03:55:55;;;;;;;25.35;10.73;;;;;;;;;;5059601;28;20196;-67
2023/02/19 03:58:29;;;;;;;22.13;11.40;;;;;;;;;;5058440;28;20185;-67
2023/02/19 04:01:03;;;;;;;32.38;11.68;;;;;;;;;;5056933;28;20216;-68
2023/02/19 04:03:52;;;;;;;23.75;10.45;;;;;;;;;;5062435;28;20191;-67
2023/02/19 04:06:30;;;;;;;20.10;10.32;;;;;;;;;;5057202;28;20189;-67
2023/02/19 04:08:59;;;;;;;20.60;10.43;;;;;;;;;;5050044;28;20224;-67
2023/02/19 04:11:26;;;;;;;19.02;9.68;;;;;;;;;;5050378;28;20552;-68
2023/02/19 04:14:19;;;;;;;22.13;10.27;;;;;;;;;;5049110;28;20287;-68
2023/02/19 04:16:50;;;;;;;22.27;10.07;;;;;;;;;;5052002;28;20657;-67
2023/02/19 04:19:19;;;;;;;19.20;9.63;;;;;;;;;;5053764;28;20177;-67
2023/02/19 04:21:49;;;;;;;17.75;9.55;;;;;;;;;;5059594;28;20279;-67
2023/02/19 04:24:43;;;;;;;19.73;8.98;;;;;;;;;;5060848;28;20191;-68
2023/02/19 04:27:09;;;;;;;21.27;10.25;;;;;;;;;;5053172;28;20279;-67
2023/02/19 04:29:35;;;;;;;22.48;9.68;;;;;;;;;;5047497;28;20749;-69
2023/02/19 04:32:00;;;;;;;27.05;10.80;;;;;;;;;;5057885;28;20269;-68
2023/02/19 04:34:26;;;;;;;21.67;10.85;;;;;;;;;;5064340;28;20249;-67
2023/02/19 04:36:51;;;;;;;19.88;11.10;;;;;;;;;;5056008;28;20593;-68
2023/02/19 04:39:16;;;;;;;21.02;10.55;;;;;;;;;;5054007;28;20177;-68
2023/02/19 04:41:42;;;;;;;19.75;9.75;;;;;;;;;;5064181;28;20275;-68
2023/02/19 04:44:07;;;;;;;22.77;10.40;;;;;;;;;;5049066;28;20212;-67
2023/02/19 04:46:32;;;;;;;21.63;10.45;;;;;;;;;;5048428;28;20275;-68
2023/02/19 04:48:58;;;;;;;22.45;10.73;;;;;;;;;;5067861;28;20216;-67
2023/02/19 04:51:23;;;;;;;24.50;11.63;;;;;;;;;;5054261;28;20193;-67
2023/02/19 04:53:48;;;;;;;25.92;11.43;;;;;;;;;;5062054;28;20573;-68
2023/02/19 04:56:15;;;;;;;31.38;11.82;;;;;;;;;;5059985;28;20199;-68
2023/02/19 04:58:41;;;;;;;21.25;11.63;;;;;;;;;;5048223;28;20181;-68
2023/02/19 05:01:08;;;;;;;26.27;11.38;;;;;;;;;;5048290;28;20232;-68
2023/02/19 05:03:35;;;;;;;22.17;10.88;;;;;;;;;;5063924;28;20188;-68
2023/02/19 05:06:03;;;;;;;22.05;11.50;;;;;;;;;;5061636;28;20314;-67
2023/02/19 05:08:29;;;;;;;21.73;10.40;;;;;;;;;;5051300;28;20201;-67
2023/02/19 05:11:02;;;;;;;23.90;10.90;;;;;;;;;;5059718;28;20659;-68
2023/02/19 05:13:28;;;;;;;26.92;12.18;;;;;;;;;;5052310;28;20216;-68
2023/02/19 05:15:59;;;;;;;24.83;11.43;;;;;;;;;;5051326;28;20185;-68
2023/02/19 05:18:25;;;;;;;19.92;10.63;;;;;;;;;;5051192;28;20216;-67
2023/02/19 05:20:51;;;;;;;20.92;10.95;;;;;;;;;;5063504;28;20249;-67
2023/02/19 05:23:17;;;;;;;24.30;10.98;;;;;;;;;;5049090;28;20204;-67
2023/02/19 05:25:43;;;;;;;26.85;11.68;;;;;;;;;;5054819;28;20250;-67
2023/02/19 05:28:17;;;;;;;32.30;10.88;;;;;;;;;;5061795;28;20241;-67
2023/02/19 05:30:47;;;;;;;25.63;11.23;;;;;;;;;;5056458;28;20235;-67
2023/02/19 05:33:14;;;;;;;24.08;11.35;;;;;;;;;;5060094;28;20200;-68
2023/02/19 05:35:48;;;;;;;24.33;11.63;;;;;;;;;;5058888;28;20242;-67
2023/02/19 05:38:14;;;;;;;23.52;10.10;;;;;;;;;;5051802;28;20200;-67
2023/02/19 05:40:40;;;;;;;26.95;12.07;;;;;;;;;;5048926;28;20602;-67
2023/02/19 05:43:06;;;;;;;22.77;10.48;;;;;;;;;;5055216;28;20676;-67
2023/02/19 05:45:32;;;;;;;24.13;10.15;;;;;;;;;;5060510;28;20220;-67
2023/02/19 05:47:58;;;;;;;26.38;10.30;;;;;;;;;;5066083;28;20624;-67
2023/02/19 05:50:23;;;;;;;25.15;10.48;;;;;;;;;;5059494;28;20228;-67
2023/02/19 05:52:49;;;;;;;27.90;11.55;;;;;;;;;;5054270;28;20199;-67
2023/02/19 05:55:14;;;;;;;21.98;10.77;;;;;;;;;;5052726;28;20236;-67
2023/02/19 05:57:41;;;;;;;24.23;10.00;;;;;;;;;;5055168;28;20284;-66
2023/02/19 06:00:09;;;;;;;25.00;11.23;;;;;;;;;;5052342;28;20212;-67
2023/02/19 06:02:35;;;;;;;28.63;10.65;;;;;;;;;;5047108;28;20321;-67
2023/02/19 06:05:00;;;;;;;23.25;10.90;;;;;;;;;;5052242;28;20204;-67
2023/02/19 06:07:26;;;;;;;29.50;11.77;;;;;;;;;;5059473;28;20611;-68
2023/02/19 06:09:51;;;;;;;26.42;11.60;;;;;;;;;;5049302;28;20229;-67
2023/02/19 06:12:17;;;;;;;23.00;10.90;;;;;;;;;;5051664;28;20189;-67
2023/02/19 06:14:42;;;;;;;29.90;11.55;;;;;;;;;;5049882;28;20193;-66
2023/02/19 06:17:07;;;;;;;23.90;11.40;;;;;;;;;;5047284;28;20617;-67
2023/02/19 06:19:33;;;;;;;34.13;13.27;;;;;;;;;;5052374;28;20196;-66
2023/02/19 06:21:58;;;;;;;24.27;11.80;;;;;;;;;;5056431;28;20197;-67
2023/02/19 06:24:24;;;;;;;28.23;12.85;;;;;;;;;;5063558;28;20469;-67
2023/02/19 06:26:49;;;;;;;31.65;12.75;;;;;;;;;;5054097;28;20225;-67
2023/02/19 06:29:16;;;;;;;27.58;12.27;;;;;;;;;;5063751;28;20225;-68
2023/02/19 06:31:41;;;;;;;35.65;13.98;;;;;;;;;;5053287;28;20190;-67
2023/02/19 06:34:07;;;;;;;33.22;12.88;;;;;;;;;;5051259;28;20315;-67
2023/02/19 06:36:32;;;;;;;24.77;12.98;;;;;;;;;;5055270;28;20266;-68
2023/02/19 06:39:02;;;;;;;27.35;12.93;;;;;;;;;;5052926;28;20189;-68
2023/02/19 06:41:27;;;;;;;26.42;11.73;;;;;;;;;;5064763;28;20728;-70
2023/02/19 06:43:53;;;;;;;33.67;12.27;;;;;;;;;;5051383;28;20185;-70
2023/02/19 06:46:18;;;;;;;30.55;11.43;;;;;;;;;;5052672;28;20254;-69
2023/02/19 06:48:44;;;;;;;28.35;12.20;;;;;;;;;;5053784;28;20188;-70
2023/02/19 06:51:18;;;;;;;28.40;12.05;;;;;;;;;;5053969;28;20668;-72
2023/02/19 06:53:43;;;;;;;24.58;12.45;;;;;;;;;;5056799;28;20672;-71
2023/02/19 06:56:25;;;;;;;31.33;12.38;;;;;;;;;;5050845;28;20181;-71
2023/02/19 06:58:53;;;;;;;24.25;11.40;;;;;;;;;;5055782;28;20578;-70
2023/02/19 07:01:18;;;;;;;28.42;12.07;;;;;;;;;;5054827;28;20570;-70
2023/02/19 07:03:43;;;;;;;27.52;11.75;;;;;;;;;;5061082;28;20268;-70
2023/02/19 07:06:09;;;;;;;22.23;11.63;;;;;;;;;;5053861;28;20205;-70
2023/02/19 07:08:34;;;;;;;29.92;12.52;;;;;;;;;;5055023;28;20585;-70
2023/02/19 07:11:00;;;;;;;26.65;11.32;;;;;;;;;;5052929;28;20185;-70
2023/02/19 07:13:26;;;;;;;28.20;12.15;;;;;;;;;;5052685;28;20685;-70
2023/02/19 07:16:04;;;;;;;29.63;11.35;;;;;;;;;;5050211;28;20200;-70
2023/02/19 07:18:32;;;;;;;27.63;11.25;;;;;;;;;;5051849;28;20189;-70
2023/02/19 07:21:06;;;;;;;25.73;11.95;;;;;;;;;;5064766;28;20188;-70
2023/02/19 07:23:32;;;;;;;20.52;10.73;;;;;;;;;;5056587;28;20196;-71
2023/02/19 07:25:57;;;;;;;20.35;8.98;;;;;;;;;;5052929;28;20191;-70
2023/02/19 07:28:23;;;;;;;9.38;4.45;;;;;;;;;;5053184;28;20228;-71
2023/02/19 07:30:49;;;;;;;7.18;3.30;;;;;;;;;;5056456;28;20205;-70
2023/02/19 07:33:14;;;;;;;6.10;3.40;;;;;;;;;;5057167;28;20200;-71
2023/02/19 07:35:47;;;;;;;5.65;3.30;;;;;;;;;;5066301;28;20216;-71
2023/02/19 07:38:18;;;;;;;5.97;3.20;;;;;;;;;;5052172;28;20318;-71
2023/02/19 07:41:10;;;;;;;6.95;3.70;;;;;;;;;;5055775;28;20262;-71
2023/02/19 07:43:36;;;;;;;7.40;4.05;;;;;;;;;;5056623;28;20337;-71
2023/02/19 07:46:07;;;;;;;9.23;4.10;;;;;;;;;;5059991;28;20656;-71
2023/02/19 07:48:34;;;;;;;10.07;4.40;;;;;;;;;;5053838;28;20211;-71
2023/02/19 07:51:02;;;;;;;8.75;4.35;;;;;;;;;;5062852;28;20185;-71
2023/02/19 07:53:30;;;;;;;8.60;4.38;;;;;;;;;;5059453;28;20189;-71
2023/02/19 07:56:00;;;;;;;9.18;4.57;;;;;;;;;;5053233;28;20370;-71
2023/02/19 07:58:26;;;;;;;10.00;4.97;;;;;;;;;;5049986;28;20196;-70
2023/02/19 08:00:51;;;;;;;11.60;5.50;;;;;;;;;;5054710;28;20711;-71
2023/02/19 08:03:17;;;;;;;12.38;4.72;;;;;;;;;;5054425;28;20189;-71
2023/02/19 08:05:45;;;;;;;8.85;4.43;;;;;;;;;;5055550;28;20192;-71
2023/02/19 08:08:14;;;;;;;10.17;4.63;;;;;;;;;;5053228;28;20189;-72
2023/02/19 08:13:29;;;;;;;10.45;4.80;;;;;;;;;;5055524;28;20224;-72
2023/02/19 08:16:07;;;;;;;10.32;4.20;;;;;;;;;;5054201;28;20189;-71
2023/02/19 08:18:33;;;;;;;11.13;4.57;;;;;;;;;;5056321;28;20486;-71
2023/02/19 08:20:58;;;;;;;11.63;4.97;;;;;;;;;;5060188;28;20197;-70
2023/02/19 08:23:24;;;;;;;9.73;4.45;;;;;;;;;;5054051;28;20259;-70
2023/02/19 08:25:52;;;;;;;11.60;4.95;;;;;;;;;;5061854;28;20534;-71
2023/02/19 08:28:18;;;;;;;16.00;6.60;;;;;;;;;;5051394;28;20275;-70
2023/02/19 08:30:45;;;;;;;15.50;5.83;;;;;;;;;;5049342;28;20696;-70
2023/02/19 08:33:13;;;;;;;14.83;6.03;;;;;;;;;;5058492;28;20188;-71
2023/02/19 08:35:38;;;;;;;13.02;5.57;;;;;;;;;;5056456;28;20251;-70
2023/02/19 08:38:05;;;;;;;14.82;6.03;;;;;;;;;;5059760;28;20721;-69
2023/02/19 08:40:31;;;;;;;11.90;5.53;;;;;;;;;;5062320;28;20307;-70
2023/02/19 08:43:08;;;;;;;15.23;6.53;;;;;;;;;;5054887;28;20864;-69
2023/02/19 08:45:36;;;;;;;11.50;5.60;;;;;;;;;;5056358;28;20197;-70
2023/02/19 08:48:01;;;;;;;11.87;5.83;;;;;;;;;;5056887;28;20197;-69
2023/02/19 08:50:27;;;;;;;9.40;5.00;;;;;;;;;;5047236;28;20680;-70
2023/02/19 08:52:53;;;;;;;12.60;5.93;;;;;;;;;;5049540;28;20609;-70
2023/02/19 08:55:18;;;;;;;12.90;6.27;;;;;;;;;;5066281;28;20188;-69
2023/02/19 08:57:44;;;;;;;11.77;5.67;;;;;;;;;;5062846;28;20375;-70
2023/02/19 09:00:10;;;;;;;9.50;5.00;;;;;;;;;;5048392;28;20216;-70
2023/02/19 09:02:36;;;;;;;9.33;4.60;;;;;;;;;;5054718;28;20253;-69
2023/02/19 09:05:01;;;;;;;10.27;5.43;;;;;;;;;;5054048;28;20198;-70
2023/02/19 09:07:27;;;;;;;10.00;4.53;;;;;;;;;;5048790;28;20201;-69
2023/02/19 09:09:52;;;;;;;7.93;4.60;;;;;;;;;;5044439;28;20301;-70
2023/02/19 09:12:18;;;;;;;9.13;5.00;;;;;;;;;;5046083;28;20268;-69
2023/02/19 09:14:43;;;;;;;8.97;3.57;;;;;;;;;;5055508;28;20218;-70
2023/02/19 09:17:09;;;;;;;7.10;3.43;;;;;;;;;;5049954;28;20304;-69
2023/02/19 09:19:35;;;;;;;5.33;3.43;;;;;;;;;;5055788;28;20283;-69
2023/02/19 09:22:01;;;;;;;6.90;3.73;;;;;;;;;;5052120;28;20730;-69
2023/02/19 09:24:26;;;;;;;5.13;3.10;;;;;;;;;;5051387;28;20194;-68
2023/02/19 09:26:53;;;;;;;5.87;3.50;;;;;;;;;;5046163;28;20295;-69
2023/02/19 09:29:20;;;;;;;5.20;3.22;;;;;;;;;;5048258;28;20223;-69
2023/02/19 09:31:45;;;;;;;5.37;3.33;;;;;;;;;;5054530;28;20213;-69
2023/02/19 09:34:11;;;;;;;5.27;3.50;;;;;;;;;;5047932;28;20197;-69
2023/02/19 09:36:39;;;;;;;5.00;3.60;;;;;;;;;;5052793;28;20193;-69
2023/02/19 09:39:07;;;;;;;5.57;3.53;;;;;;;;;;5045161;28;20272;-70
2023/02/19 09:41:44;;;;;;;5.67;3.60;;;;;;;;;;5048809;28;20185;-69
2023/02/19 09:44:12;;;;;;;6.77;3.90;;;;;;;;;;5047901;28;20247;-69
2023/02/19 09:46:49;;;;;;;4.73;3.40;;;;;;;;;;5053099;28;20656;-69
2023/02/19 09:49:23;;;;;;;6.07;3.70;;;;;;;;;;5048948;28;20637;-69
2023/02/19 09:51:58;;;;;;;5.20;3.53;;;;;;;;;;5047888;28;20659;-69
2023/02/19 09:54:27;;;;;;;6.60;3.70;;;;;;;;;;5047073;28;20568;-69
2023/02/19 09:56:54;;;;;;;7.23;4.13;;;;;;;;;;5051476;28;20192;-69
2023/02/19 09:59:27;;;;;;;5.10;3.90;;;;;;;;;;5059531;28;20268;-69
2023/02/19 10:02:04;;;;;;;6.70;3.60;;;;;;;;;;5051993;28;20841;-69
2023/02/19 10:04:29;;;;;;;5.87;3.87;;;;;;;;;;5054971;28;20225;-69
2023/02/19 10:07:02;;;;;;;4.87;3.07;;;;;;;;;;5065084;28;20246;-69
2023/02/19 10:09:29;;;;;;;5.37;3.57;;;;;;;;;;5051321;28;20220;-69
2023/02/19 10:11:55;;;;;;;4.40;2.90;;;;;;;;;;5059319;28;20201;-69
2023/02/19 10:14:39;;;;;;;5.07;2.87;;;;;;;;;;5049831;28;20296;-69
2023/02/19 10:17:07;;;;;;;4.10;2.73;;;;;;;;;;5048780;28;20326;-69
2023/02/19 10:19:34;;;;;;;4.67;2.40;;;;;;;;;;5051039;28;20251;-69
2023/02/19 10:22:02;;;;;;;4.85;2.83;;;;;;;;;;5059447;28;20199;-70
2023/02/19 10:24:28;;;;;;;3.63;2.63;;;;;;;;;;5061519;28;20254;-69
2023/02/19 10:26:54;;;;;;;4.82;3.20;;;;;;;;;;5054191;28;20229;-69
2023/02/19 10:29:20;;;;;;;7.37;3.30;;;;;;;;;;5069217;28;20213;-69
2023/02/19 10:31:46;;;;;;;6.50;3.87;;;;;;;;;;5064009;28;20191;-70
2023/02/19 10:34:21;;;;;;;6.10;3.40;;;;;;;;;;5054417;28;20251;-69
2023/02/19 10:36:49;;;;;;;6.13;3.50;;;;;;;;;;5052167;28;20284;-69
2023/02/19 10:39:21;;;;;;;5.67;3.20;;;;;;;;;;5064530;28;20264;-74
2023/02/19 10:41:48;;;;;;;4.37;3.07;;;;;;;;;;5063171;28;20675;-69
2023/02/19 10:44:19;;;;;;;7.13;3.55;;;;;;;;;;5053614;28;20264;-69
2023/02/19 10:46:48;;;;;;;4.10;2.92;;;;;;;;;;5058386;28;20586;-69
2023/02/19 10:49:30;;;;;;;4.28;3.10;;;;;;;;;;5053488;28;20399;-69
2023/02/19 10:52:01;;;;;;;4.22;2.42;;;;;;;;;;5056374;28;20189;-69
2023/02/19 10:54:30;;;;;;;3.67;2.50;;;;;;;;;;5065090;28;20192;-69
2023/02/19 10:57:13;;;;;;;4.40;2.92;;;;;;;;;;5064550;28;20193;-68
2023/02/19 10:59:48;;;;;;;4.90;2.70;;;;;;;;;;5053175;28;20220;-69
2023/02/19 11:02:18;;;;;;;5.07;2.90;;;;;;;;;;5064094;28;20199;-68
2023/02/19 11:05:15;;;;;;;3.88;2.70;;;;;;;;;;5054354;28;20279;-68
2023/02/19 11:07:50;;;;;;;3.75;2.75;;;;;;;;;;5066038;28;20185;-68
2023/02/19 11:10:26;;;;;;;4.28;2.33;;;;;;;;;;5055048;28;20228;-69
2023/02/19 11:12:54;;;;;;;3.88;2.53;;;;;;;;;;5049944;28;20196;-69
2023/02/19 11:15:21;;;;;;;4.35;2.83;;;;;;;;;;5053343;28;20281;-68
2023/02/19 11:17:57;;;;;;;5.85;2.38;;;;;;;;;;5055354;28;20189;-69
2023/02/19 11:20:23;;;;;;;4.07;2.60;;;;;;;;;;5049513;28;20272;-69
2023/02/19 11:22:48;;;;;;;3.92;2.80;;;;;;;;;;5063555;28;20282;-68
2023/02/19 11:25:14;;;;;;;4.25;2.20;;;;;;;;;;5062593;28;20346;-69
2023/02/19 11:28:17;;;;;;;4.28;2.38;;;;;;;;;;5049836;28;20291;-68
2023/02/19 11:30:44;;;;;;;4.75;2.97;;;;;;;;;;5057370;28;20224;-68
2023/02/19 11:33:18;;;;;;;4.35;2.42;;;;;;;;;;5054867;28;20197;-68
2023/02/19 11:35:45;;;;;;;4.80;2.17;;;;;;;;;;5049330;28;20196;-68
2023/02/19 11:38:13;;;;;;;3.47;2.30;;;;;;;;;;5068307;28;20240;-68
2023/02/19 11:41:09;;;;;;;3.30;2.47;;;;;;;;;;5063032;28;20188;-68
2023/02/19 11:44:03;;;;;;;4.35;2.20;;;;;;;;;;5057192;28;20238;-68
2023/02/19 11:46:57;;;;;;;3.72;2.30;;;;;;;;;;5055038;28;20186;-68
2023/02/19 11:49:51;;;;;;;2.95;2.10;;;;;;;;;;5059712;28;20441;-68
2023/02/19 11:52:45;;;;;;;3.85;2.13;;;;;;;;;;5058304;28;20189;-68
2023/02/19 11:55:28;;;;;;;2.25;1.55;;;;;;;;;;5061309;28;20255;-68
2023/02/19 11:58:23;;;;;;;2.20;1.73;;;;;;;;;;5068869;28;20184;-69
2023/02/19 12:01:01;;;;;;;1.98;1.48;;;;;;;;;;5057206;28;20244;-68
2023/02/19 12:04:04;;;;;;;2.83;1.58;;;;;;;;;;5054005;28;20197;-68
2023/02/19 12:07:13;;;;;;;2.13;1.48;;;;;;;;;;5060152;28;20291;-68
2023/02/19 12:10:01;;;;;;;3.75;1.52;;;;;;;;;;5051799;28;20204;-69
2023/02/19 12:13:03;;;;;;;2.47;2.00;;;;;;;;;;5052144;28;20536;-68
2023/02/19 12:15:42;;;;;;;1.90;1.52;;;;;;;;;;5056176;28;20294;-68
2023/02/19 12:18:18;;;;;;;2.45;1.98;;;;;;;;;;5051980;28;20185;-68
2023/02/19 12:21:01;;;;;;;2.90;1.92;;;;;;;;;;5051446;28;20193;-68
2023/02/19 12:23:46;;;;;;;2.90;2.00;;;;;;;;;;5049489;28;20193;-68
2023/02/19 12:26:24;;;;;;;3.13;1.63;;;;;;;;;;5064781;28;20189;-68
2023/02/19 12:29:17;;;;;;;1.70;1.60;;;;;;;;;;5055128;28;20220;-68
2023/02/19 12:32:01;;;;;;;4.45;1.98;;;;;;;;;;5055029;28;20200;-68
2023/02/19 12:34:26;;;;;;;2.53;1.85;;;;;;;;;;5054202;28;20335;-68
2023/02/19 12:37:12;;;;;;;3.05;1.70;;;;;;;;;;5059011;28;20257;-68
2023/02/19 12:40:11;;;;;;;2.55;2.00;;;;;;;;;;5059100;28;20250;-68
2023/02/19 12:42:55;;;;;;;3.72;2.20;;;;;;;;;;5052351;28;20184;-68
2023/02/19 12:45:33;;;;;;;2.38;1.80;;;;;;;;;;5054584;28;20550;-68
2023/02/19 12:48:02;;;;;;;3.63;2.28;;;;;;;;;;5049372;28;20189;-68
2023/02/19 12:50:29;;;;;;;3.00;1.90;;;;;;;;;;5047927;28;20494;-68
2023/02/19 12:53:10;;;;;;;2.70;1.58;;;;;;;;;;5050616;28;20216;-68
2023/02/19 12:55:43;;;;;;;2.75;1.50;;;;;;;;;;5047426;28;20247;-68
2023/02/19 12:58:17;;;;;;;2.25;1.77;;;;;;;;;;5052458;28;20231;-68
2023/02/19 13:00:49;;;;;;;3.25;1.60;;;;;;;;;;5053913;28;20299;-68
2023/02/19 13:03:38;;;;;;;2.22;1.45;;;;;;;;;;5055189;28;20707;-68
2023/02/19 13:06:24;;;;;;;3.35;1.80;;;;;;;;;;5053199;28;20203;-68
2023/02/19 13:08:58;;;;;;;2.90;1.60;;;;;;;;;;5056381;28;20208;-68
2023/02/19 13:11:52;;;;;;;1.90;1.27;;;;;;;;;;5057346;28;20271;-68
2023/02/19 13:14:25;;;;;;;2.10;1.42;;;;;;;;;;5047261;28;20186;-68
2023/02/19 13:16:56;;;;;;;2.42;1.90;;;;;;;;;;5053347;28;20221;-68
2023/02/19 13:19:22;;;;;;;3.20;1.48;;;;;;;;;;5052736;28;20177;-68
2023/02/19 13:24:44;;;;;;;4.10;1.70;;;;;;;;;;5047676;28;20202;-68
2023/02/19 13:27:12;;;;;;;3.22;1.85;;;;;;;;;;5046914;28;20213;-68
2023/02/19 13:30:12;;;;;;;2.28;1.50;;;;;;;;;;5052880;28;20209;-68
2023/02/19 13:33:09;;;;;;;1.92;1.60;;;;;;;;;;5048816;28;20598;-68
2023/02/19 13:36:04;;;;;;;2.10;1.60;;;;;;;;;;5055002;28;20189;-68
2023/02/19 13:38:31;;;;;;;2.10;1.88;;;;;;;;;;5051337;28;20181;-68
2023/02/19 13:40:59;;;;;;;3.03;1.80;;;;;;;;;;5054054;28;20545;-68
2023/02/19 13:43:37;;;;;;;2.20;1.63;;;;;;;;;;5053231;28;20189;-68
2023/02/19 13:46:07;;;;;;;2.58;1.90;;;;;;;;;;5052480;28;20216;-68
2023/02/19 13:48:35;;;;;;;2.40;1.95;;;;;;;;;;5055301;28;20701;-68
2023/02/19 13:51:20;;;;;;;2.78;1.75;;;;;;;;;;5052423;28;20204;-68
2023/02/19 13:53:46;;;;;;;3.38;1.92;;;;;;;;;;5053840;28;20276;-68
2023/02/19 13:56:30;;;;;;;3.33;1.80;;;;;;;;;;5055747;28;20194;-67
2023/02/19 13:59:15;;;;;;;3.22;1.90;;;;;;;;;;5054299;28;20243;-68
2023/02/19 14:01:52;;;;;;;3.40;2.03;;;;;;;;;;5051580;28;20263;-68
2023/02/19 14:04:22;;;;;;;1.85;1.50;;;;;;;;;;5053650;28;20204;-68
2023/02/19 14:07:03;;;;;;;2.88;1.95;;;;;;;;;;5055636;28;20196;-69
2023/02/19 14:09:42;;;;;;;4.78;2.67;;;;;;;;;;5052189;28;20310;-68
2023/02/19 14:12:13;;;;;;;7.40;4.07;;;;;;;;;;5055574;28;20698;-68
2023/02/19 14:14:47;;;;;;;6.47;2.90;;;;;;;;;;5053215;28;20190;-67
2023/02/19 14:17:25;;;;;;;5.60;3.17;;;;;;;;;;5050505;28;20554;-68
2023/02/19 14:19:59;;;;;;;3.15;2.00;;;;;;;;;;5051164;28;20240;-68
2023/02/19 14:22:43;;;;;;;2.88;1.85;;;;;;;;;;5050208;28;20184;-68
2023/02/19 14:25:30;;;;;;;3.08;2.00;;;;;;;;;;5049900;28;20193;-68
2023/02/19 14:28:10;;;;;;;2.90;1.90;;;;;;;;;;5051380;28;20293;-68
2023/02/19 14:30:56;;;;;;;2.38;1.63;;;;;;;;;;5048888;28;20310;-68
2023/02/19 14:33:29;;;;;;;2.05;1.60;;;;;;;;;;5059901;28;20669;-68
2023/02/19 14:36:14;;;;;;;4.00;2.00;;;;;;;;;;5055758;28;20494;-68
2023/02/19 14:38:56;;;;;;;2.50;1.20;;;;;;;;;;5055914;28;20580;-68
2023/02/19 14:41:22;;;;;;;2.00;1.60;;;;;;;;;;5058142;28;20521;-67
2023/02/19 14:43:51;;;;;;;3.05;1.90;;;;;;;;;;5057681;28;20272;-68
2023/02/19 14:46:30;;;;;;;4.93;2.10;;;;;;;;;;5060484;28;20196;-68
2023/02/19 14:49:02;;;;;;;3.17;1.58;;;;;;;;;;5053344;28;20196;-68
2023/02/19 14:51:39;;;;;;;2.42;1.10;;;;;;;;;;5054898;28;20261;-68
2023/02/19 14:54:37;;;;;;;2.65;1.40;;;;;;;;;;5051087;28;20193;-68
2023/02/19 14:57:09;;;;;;;1.88;1.40;;;;;;;;;;5045511;28;20201;-68
2023/02/19 14:59:34;;;;;;;0.95;0.85;;;;;;;;;;5058002;28;20212;-68
2023/02/19 15:02:16;;;;;;;1.33;0.93;;;;;;;;;;4355998;28;10000708;-68
2023/02/19 15:04:41;;;;;;;2.22;1.25;;;;;;;;;;5054896;28;20527;-68
2023/02/19 15:07:14;;;;;;;2.55;1.40;;;;;;;;;;5062552;28;20826;-68
2023/02/19 15:09:46;;;;;;;3.47;1.67;;;;;;;;;;5051922;28;20223;-67
2023/02/19 15:12:20;;;;;;;3.13;1.20;;;;;;;;;;5064727;28;20241;-68
2023/02/19 15:14:48;;;;;;;1.30;1.08;;;;;;;;;;5048399;28;20206;-68
2023/02/19 15:17:36;;;;;;;2.35;1.20;;;;;;;;;;5056964;28;20207;-68
2023/02/19 15:20:07;;;;;;;1.52;1.10;;;;;;;;;;5050122;28;20334;-68
2023/02/19 15:22:33;;;;;;;2.15;1.40;;;;;;;;;;5061171;28;20224;-68
2023/02/19 15:25:03;;;;;;;1.60;1.30;;;;;;;;;;5059390;28;20566;-68
2023/02/19 15:27:29;;;;;;;1.88;1.45;;;;;;;;;;5060657;28;20237;-68